Time;durP1;ratioP1;P1;durP2;ratioP2;P2;SDS_P1;SDS_P2;PMS_P1;PMS_P2;Temp;Humidity;BMP_temperature;BMP_pressure;BME280_temperature;BME280_humidity;BME280_pressure;Samples;Min_cycle;Max_cycle;Signal;HPM_P1;HPM_P2
2022/11/26 00:00:14;;;;;;;8.05;5.13;;;7.40;86.70;;;;;;5034670;28;20037;-62
2022/11/26 00:02:40;;;;;;;6.82;4.90;;;7.40;86.80;;;;;;5034988;28;20029;-63
2022/11/26 00:05:08;;;;;;;9.82;4.95;;;7.40;86.70;;;;;;5034965;28;21050;-64
2022/11/26 00:07:34;;;;;;;9.63;5.00;;;7.40;86.90;;;;;;5021459;28;20495;-63
2022/11/26 00:10:00;;;;;;;7.53;4.38;;;7.40;86.90;;;;;;5035419;28;20047;-63
2022/11/26 00:12:30;;;;;;;7.50;4.53;;;7.40;86.90;;;;;;5032210;28;20477;-62
2022/11/26 00:14:55;;;;;;;8.85;4.32;;;7.40;86.90;;;;;;5034235;28;20559;-61
2022/11/26 00:17:21;;;;;;;8.05;4.25;;;7.40;86.90;;;;;;5033944;28;20036;-63
2022/11/26 00:19:47;;;;;;;5.25;3.63;;;7.40;86.70;;;;;;5034981;28;20037;-63
2022/11/26 00:22:25;;;;;;;7.20;3.88;;;7.40;86.80;;;;;;5035419;28;20131;-63
2022/11/26 00:24:51;;;;;;;7.55;3.53;;;7.40;86.80;;;;;;5032475;28;20041;-63
2022/11/26 00:27:17;;;;;;;9.23;4.00;;;7.40;86.70;;;;;;5033093;28;20041;-62
2022/11/26 00:29:43;;;;;;;9.45;3.63;;;7.40;86.70;;;;;;5035393;28;20042;-63
2022/11/26 00:32:16;;;;;;;7.25;3.67;;;7.50;86.70;;;;;;5034034;28;20390;-63
2022/11/26 00:34:42;;;;;;;6.72;3.58;;;7.50;86.70;;;;;;5037945;28;20136;-62
2022/11/26 00:37:19;;;;;;;7.55;3.67;;;7.50;86.70;;;;;;5039570;28;20573;-61
2022/11/26 00:39:45;;;;;;;6.18;3.35;;;7.50;86.60;;;;;;5038122;28;20030;-63
2022/11/26 00:42:11;;;;;;;6.65;3.10;;;7.50;86.40;;;;;;5037537;28;20037;-62
2022/11/26 00:44:37;;;;;;;4.93;3.00;;;7.50;86.40;;;;;;5035019;28;20037;-61
2022/11/26 00:47:02;;;;;;;7.43;3.28;;;7.40;86.40;;;;;;5037436;28;20526;-63
2022/11/26 00:49:28;;;;;;;6.60;3.13;;;7.40;86.40;;;;;;5034393;28;20040;-63
2022/11/26 00:51:54;;;;;;;5.50;2.72;;;7.40;86.40;;;;;;5036811;28;20120;-63
2022/11/26 00:54:20;;;;;;;6.45;2.80;;;7.40;86.40;;;;;;5037627;28;20091;-63
2022/11/26 00:56:47;;;;;;;9.07;2.60;;;7.40;86.60;;;;;;5037978;28;20080;-63
2022/11/26 00:59:17;;;;;;;6.78;2.67;;;7.30;86.60;;;;;;5039474;28;20121;-63
2022/11/26 01:01:43;;;;;;;5.25;2.35;;;7.30;86.70;;;;;;5038586;28;20030;-63
2022/11/26 01:04:09;;;;;;;6.78;2.47;;;7.30;86.70;;;;;;5038799;28;20083;-63
2022/11/26 01:06:43;;;;;;;5.57;2.72;;;7.20;86.70;;;;;;5038872;28;20030;-62
2022/11/26 01:09:20;;;;;;;2.78;1.90;;;7.30;86.90;;;;;;5039333;28;20510;-61
2022/11/26 01:11:46;;;;;;;5.90;2.70;;;7.20;86.90;;;;;;5036783;28;20047;-63
2022/11/26 01:14:17;;;;;;;3.50;2.28;;;7.20;86.70;;;;;;5036096;28;20176;-63
2022/11/26 01:16:45;;;;;;;6.05;2.30;;;7.20;86.40;;;;;;5034457;28;20033;-62
2022/11/26 01:19:12;;;;;;;5.65;2.78;;;7.20;86.30;;;;;;5034286;28;20420;-62
2022/11/26 01:21:38;;;;;;;7.07;2.90;;;7.20;86.20;;;;;;5033027;28;20045;-63
2022/11/26 01:24:05;;;;;;;4.43;2.75;;;7.20;86.20;;;;;;5035454;28;20041;-63
2022/11/26 01:26:39;;;;;;;5.53;2.72;;;7.20;86.20;;;;;;5034006;28;20500;-62
2022/11/26 01:29:05;;;;;;;5.63;3.00;;;7.10;86.00;;;;;;5031530;28;20409;-61
2022/11/26 01:31:31;;;;;;;5.93;3.17;;;7.20;86.00;;;;;;5034465;28;20071;-63
2022/11/26 01:33:57;;;;;;;5.53;2.80;;;7.10;85.90;;;;;;5034023;28;20521;-63
2022/11/26 01:36:36;;;;;;;6.25;3.00;;;7.10;85.70;;;;;;5036749;28;20132;-63
2022/11/26 01:39:05;;;;;;;7.68;3.38;;;7.10;85.60;;;;;;5033020;28;20030;-63
2022/11/26 01:41:58;;;;;;;7.03;3.42;;;7.10;85.60;;;;;;5035081;28;20102;-62
2022/11/26 01:44:27;;;;;;;5.45;3.25;;;7.10;85.40;;;;;;5033689;28;20060;-62
2022/11/26 01:46:53;;;;;;;6.82;2.90;;;7.10;85.30;;;;;;5033100;28;20036;-63
2022/11/26 01:49:25;;;;;;;5.25;2.90;;;7.00;85.10;;;;;;5031623;28;20028;-63
2022/11/26 01:52:10;;;;;;;4.85;3.25;;;7.00;85.00;;;;;;5033582;28;20151;-63
2022/11/26 01:54:39;;;;;;;5.88;3.03;;;7.00;85.10;;;;;;5034554;28;20041;-63
2022/11/26 01:57:19;;;;;;;5.78;3.10;;;6.90;85.10;;;;;;5033198;28;20037;-63
2022/11/26 01:59:52;;;;;;;6.00;3.55;;;6.90;85.00;;;;;;5031136;28;20037;-62
2022/11/26 02:02:20;;;;;;;4.97;3.22;;;6.90;85.10;;;;;;5034739;28;20037;-63
2022/11/26 02:04:53;;;;;;;5.45;3.58;;;6.80;85.20;;;;;;5030268;28;20072;-63
2022/11/26 02:07:19;;;;;;;6.65;3.35;;;6.80;85.40;;;;;;5032728;28;20449;-62
2022/11/26 02:09:45;;;;;;;7.82;3.50;;;6.80;85.60;;;;;;5034044;28;20128;-63
2022/11/26 02:12:12;;;;;;;7.25;3.22;;;6.80;85.90;;;;;;5032684;28;20033;-62
2022/11/26 02:14:41;;;;;;;7.65;3.42;;;6.70;86.00;;;;;;5030756;28;20144;-63
2022/11/26 02:17:14;;;;;;;6.72;3.35;;;6.70;86.20;;;;;;5032815;28;20204;-62
2022/11/26 02:19:51;;;;;;;5.15;2.88;;;6.70;86.30;;;;;;5033495;28;20041;-63
2022/11/26 02:22:45;;;;;;;5.80;2.97;;;6.80;86.40;;;;;;5032817;28;20458;-62
2022/11/26 02:25:40;;;;;;;4.75;2.70;;;6.80;86.40;;;;;;5034531;28;20447;-63
2022/11/26 02:28:44;;;;;;;6.63;2.90;;;6.80;86.40;;;;;;5004232;28;20151;-61
2022/11/26 02:31:28;;;;;;;7.00;2.58;;;6.80;86.70;;;;;;5033542;28;20633;-63
2022/11/26 02:34:18;;;;;;;5.40;2.60;;;6.80;86.60;;;;;;5034626;28;20115;-62
2022/11/26 02:37:16;;;;;;;6.57;2.20;;;6.70;86.70;;;;;;5034834;28;20063;-63
2022/11/26 02:39:41;;;;;;;5.57;2.47;;;6.80;88.00;;;;;;5035249;28;20275;-63
2022/11/26 02:42:26;;;;;;;3.95;2.25;;;6.70;86.70;;;;;;5035263;28;20033;-63
2022/11/26 02:44:59;;;;;;;3.20;2.08;;;6.70;87.40;;;;;;5035414;28;20040;-62
2022/11/26 02:47:28;;;;;;;4.68;2.35;;;6.70;87.30;;;;;;5035233;28;20393;-62
2022/11/26 02:49:56;;;;;;;6.30;2.50;;;6.70;88.10;;;;;;5031349;28;20036;-61
2022/11/26 02:52:23;;;;;;;3.55;2.20;;;6.70;87.30;;;;;;5033191;28;20467;-63
2022/11/26 02:54:50;;;;;;;4.90;2.50;;;6.80;87.40;;;;;;5032138;28;20064;-63
2022/11/26 02:57:20;;;;;;;5.85;2.60;;;6.80;87.60;;;;;;5034160;28;20037;-62
2022/11/26 02:59:46;;;;;;;4.45;2.33;;;6.80;87.60;;;;;;5031769;28;20041;-63
2022/11/26 03:02:26;;;;;;;5.90;2.55;;;6.80;87.50;;;;;;5031174;28;20044;-63
2022/11/26 03:04:56;;;;;;;5.20;2.50;;;6.90;87.60;;;;;;5031453;28;20124;-63
2022/11/26 03:07:23;;;;;;;4.47;2.60;;;6.90;87.50;;;;;;5017975;28;20034;-63
2022/11/26 03:09:56;;;;;;;6.32;2.53;;;6.90;87.40;;;;;;5037928;28;20047;-63
2022/11/26 03:12:22;;;;;;;6.65;2.60;;;6.90;87.40;;;;;;5016935;28;20439;-63
2022/11/26 03:14:47;;;;;;;5.38;2.60;;;6.90;87.30;;;;;;5031111;28;20321;-63
2022/11/26 03:17:13;;;;;;;4.78;2.30;;;6.90;87.30;;;;;;5031397;28;20448;-63
2022/11/26 03:19:39;;;;;;;5.43;2.58;;;6.90;87.30;;;;;;5036430;28;20597;-62
2022/11/26 03:22:05;;;;;;;5.82;2.63;;;7.00;87.40;;;;;;5036185;28;20095;-63
2022/11/26 03:24:31;;;;;;;6.47;2.97;;;7.00;87.40;;;;;;5038484;28;20045;-61
2022/11/26 03:26:57;;;;;;;6.32;2.53;;;7.00;87.40;;;;;;5020385;28;20048;-63
2022/11/26 03:29:22;;;;;;;7.03;2.67;;;7.00;87.40;;;;;;5037381;28;21953;-62
2022/11/26 03:31:48;;;;;;;7.82;2.53;;;7.00;87.60;;;;;;5037421;28;20064;-63
2022/11/26 03:34:13;;;;;;;6.03;2.53;;;7.00;87.70;;;;;;5039260;28;20299;-63
2022/11/26 03:36:39;;;;;;;6.75;3.17;;;7.00;87.70;;;;;;5039519;28;20567;-62
2022/11/26 03:39:05;;;;;;;8.70;3.00;;;7.00;87.70;;;;;;5039107;28;20044;-60
2022/11/26 03:41:30;;;;;;;8.95;2.90;;;7.00;87.70;;;;;;5039435;28;20523;-62
2022/11/26 03:43:56;;;;;;;10.35;2.75;;;7.00;87.80;;;;;;5040431;28;20275;-66
2022/11/26 03:46:21;;;;;;;6.55;2.88;;;7.00;88.00;;;;;;5042491;28;20559;-63
2022/11/26 03:48:47;;;;;;;7.05;3.15;;;7.00;88.10;;;;;;5036561;28;20107;-63
2022/11/26 03:51:12;;;;;;;7.97;2.55;;;7.00;88.10;;;;;;5038915;28;20030;-63
2022/11/26 03:53:38;;;;;;;6.85;2.90;;;7.00;88.10;;;;;;5038330;28;20435;-62
2022/11/26 03:56:04;;;;;;;5.80;2.50;;;7.00;88.10;;;;;;5039196;28;20037;-62
2022/11/26 03:58:29;;;;;;;5.28;2.75;;;7.10;88.20;;;;;;5039976;28;20048;-63
2022/11/26 04:00:55;;;;;;;5.78;2.60;;;7.10;88.20;;;;;;5040900;28;20120;-63
2022/11/26 04:03:21;;;;;;;6.72;2.67;;;7.10;88.30;;;;;;5037896;28;20033;-63
2022/11/26 04:05:47;;;;;;;6.22;2.35;;;7.10;88.30;;;;;;5038529;28;20041;-63
2022/11/26 04:08:12;;;;;;;6.43;3.05;;;7.20;88.20;;;;;;5040332;28;20033;-63
2022/11/26 04:10:38;;;;;;;5.07;2.53;;;7.20;88.00;;;;;;5038420;28;20493;-63
2022/11/26 04:13:04;;;;;;;7.97;2.50;;;7.20;87.90;;;;;;5038954;28;20075;-62
2022/11/26 04:15:29;;;;;;;5.60;2.70;;;7.20;87.80;;;;;;5038373;28;20060;-63
2022/11/26 04:17:55;;;;;;;5.72;2.83;;;7.20;87.80;;;;;;5037604;28;20034;-63
2022/11/26 04:20:20;;;;;;;6.45;2.97;;;7.20;87.60;;;;;;5037399;28;20477;-62
2022/11/26 04:22:46;;;;;;;7.97;3.28;;;7.20;87.60;;;;;;5037808;28;20655;-63
2022/11/26 04:25:11;;;;;;;4.47;2.88;;;7.20;87.60;;;;;;5038384;28;20040;-62
2022/11/26 04:27:37;;;;;;;6.28;3.22;;;7.20;87.40;;;;;;5036748;28;20057;-62
2022/11/26 04:30:04;;;;;;;9.20;5.65;;;7.20;87.40;;;;;;5038947;28;20053;-62
2022/11/26 04:32:30;;;;;;;6.38;4.70;;;7.20;87.40;;;;;;5036410;28;20041;-63
2022/11/26 04:34:56;;;;;;;10.45;7.10;;;7.20;87.40;;;;;;5037233;28;20421;-63
2022/11/26 04:37:21;;;;;;;10.45;5.13;;;7.20;87.40;;;;;;5038118;28;20047;-62
2022/11/26 04:39:47;;;;;;;6.00;4.60;;;7.10;87.30;;;;;;5037961;28;20025;-63
2022/11/26 04:42:12;;;;;;;7.10;3.40;;;7.20;87.30;;;;;;5037993;28;20038;-63
2022/11/26 04:44:38;;;;;;;6.15;2.95;;;7.30;87.30;;;;;;5035696;28;20485;-62
2022/11/26 04:47:03;;;;;;;6.00;2.85;;;7.20;87.30;;;;;;5037633;28;20037;-63
2022/11/26 04:49:29;;;;;;;7.10;3.33;;;7.30;87.30;;;;;;5038048;28;20087;-63
2022/11/26 04:51:54;;;;;;;6.68;3.50;;;7.30;87.40;;;;;;5036806;28;20037;-63
2022/11/26 04:54:20;;;;;;;7.93;3.20;;;7.20;87.40;;;;;;5037972;28;20033;-63
2022/11/26 04:56:45;;;;;;;8.00;3.55;;;7.30;87.40;;;;;;5037074;28;20071;-63
2022/11/26 04:59:11;;;;;;;7.28;3.50;;;7.30;87.40;;;;;;5038370;28;20623;-62
2022/11/26 05:01:36;;;;;;;4.85;3.00;;;7.30;87.30;;;;;;5035887;28;20095;-62
2022/11/26 05:04:02;;;;;;;19.77;7.80;;;7.30;87.00;;;;;;5036534;28;20045;-63
2022/11/26 05:06:28;;;;;;;130.13;33.72;;;7.30;86.90;;;;;;5036860;28;20037;-63
2022/11/26 05:08:54;;;;;;;98.72;28.50;;;7.30;86.70;;;;;;5037286;28;20079;-62
2022/11/26 05:11:19;;;;;;;34.47;12.23;;;7.20;86.70;;;;;;5036883;28;20029;-62
2022/11/26 05:13:45;;;;;;;18.65;8.40;;;7.20;86.60;;;;;;5037214;28;20033;-63
2022/11/26 05:16:10;;;;;;;11.25;6.07;;;7.20;86.50;;;;;;5037422;28;20040;-62
2022/11/26 05:18:36;;;;;;;9.82;5.30;;;7.20;87.40;;;;;;5033141;28;20038;-62
2022/11/26 05:21:04;;;;;;;8.77;4.90;;;7.20;86.60;;;;;;5032222;28;20112;-63
2022/11/26 05:23:30;;;;;;;6.68;4.63;;;7.10;86.50;;;;;;5037596;28;20030;-62
2022/11/26 05:25:55;;;;;;;6.90;4.80;;;7.10;86.50;;;;;;5039178;28;20509;-63
2022/11/26 05:28:21;;;;;;;9.48;4.63;;;7.10;86.30;;;;;;5036217;28;20033;-62
2022/11/26 05:30:46;;;;;;;5.18;4.28;;;7.00;86.00;;;;;;5034454;28;20037;-63
2022/11/26 05:33:12;;;;;;;5.43;3.90;;;7.00;85.90;;;;;;5033267;28;20128;-62
2022/11/26 05:35:37;;;;;;;5.68;4.35;;;7.00;85.90;;;;;;5034393;28;20488;-61
2022/11/26 05:38:03;;;;;;;5.45;4.50;;;6.90;85.60;;;;;;5035313;28;20033;-62
2022/11/26 05:40:29;;;;;;;8.18;4.05;;;6.90;85.50;;;;;;5032650;28;20958;-62
2022/11/26 05:42:54;;;;;;;11.98;7.00;;;6.80;85.50;;;;;;5031935;28;20041;-63
2022/11/26 05:45:20;;;;;;;7.95;5.22;;;6.80;85.80;;;;;;5032718;28;20065;-61
2022/11/26 05:47:45;;;;;;;6.57;5.10;;;6.70;86.00;;;;;;5035023;28;20041;-63
2022/11/26 05:50:11;;;;;;;6.03;4.88;;;6.70;86.00;;;;;;5034390;28;20467;-63
2022/11/26 05:52:37;;;;;;;7.20;4.75;;;6.70;86.10;;;;;;5033746;28;20036;-63
2022/11/26 05:55:03;;;;;;;6.82;4.20;;;6.60;86.00;;;;;;5036402;28;20047;-63
2022/11/26 05:57:28;;;;;;;8.50;5.65;;;6.60;85.80;;;;;;5034039;28;20040;-63
2022/11/26 05:59:54;;;;;;;7.30;4.93;;;6.60;85.90;;;;;;5034153;28;20056;-63
2022/11/26 06:02:19;;;;;;;6.53;4.80;;;6.60;85.80;;;;;;5035510;28;20033;-61
2022/11/26 06:04:45;;;;;;;6.35;4.50;;;6.60;85.60;;;;;;5033850;28;20049;-62
2022/11/26 06:07:10;;;;;;;6.88;4.45;;;6.50;85.30;;;;;;5034919;28;20040;-61
2022/11/26 06:09:36;;;;;;;6.05;4.55;;;6.50;84.90;;;;;;5033484;28;20037;-62
2022/11/26 06:12:02;;;;;;;8.23;4.65;;;6.50;84.70;;;;;;5030452;28;20033;-62
2022/11/26 06:14:27;;;;;;;7.30;4.55;;;6.40;84.60;;;;;;5033625;28;20962;-62
2022/11/26 06:16:53;;;;;;;7.05;4.63;;;6.30;84.70;;;;;;5034690;28;20134;-62
2022/11/26 06:19:19;;;;;;;7.63;4.65;;;6.30;84.90;;;;;;5031801;28;20044;-63
2022/11/26 06:21:44;;;;;;;6.65;4.53;;;6.30;85.10;;;;;;5032794;28;20053;-62
2022/11/26 06:24:10;;;;;;;6.30;4.82;;;6.20;85.20;;;;;;5033295;28;20432;-63
2022/11/26 06:26:35;;;;;;;5.05;4.28;;;6.20;85.40;;;;;;5034807;28;20040;-61
2022/11/26 06:29:01;;;;;;;6.28;4.35;;;6.20;85.50;;;;;;5034199;28;20087;-62
2022/11/26 06:31:27;;;;;;;5.30;4.25;;;6.20;85.50;;;;;;5033699;28;20029;-61
2022/11/26 06:33:54;;;;;;;6.22;4.40;;;6.10;85.30;;;;;;5033634;28;20516;-63
2022/11/26 06:36:20;;;;;;;7.78;4.90;;;6.20;84.90;;;;;;5033293;28;20033;-62
2022/11/26 06:38:45;;;;;;;6.32;4.72;;;6.10;84.70;;;;;;5031170;28;20522;-62
2022/11/26 06:41:11;;;;;;;5.88;4.30;;;6.00;84.50;;;;;;5032986;28;20504;-63
2022/11/26 06:43:37;;;;;;;5.50;4.35;;;6.00;84.50;;;;;;5033222;28;20132;-62
2022/11/26 06:46:05;;;;;;;8.88;4.47;;;5.90;84.40;;;;;;5035228;28;20048;-61
2022/11/26 06:48:31;;;;;;;8.45;5.10;;;5.80;84.40;;;;;;5033949;28;20043;-63
2022/11/26 06:51:05;;;;;;;11.55;5.35;;;5.80;84.40;;;;;;5034652;28;20068;-61
2022/11/26 06:53:31;;;;;;;9.73;5.40;;;5.70;84.50;;;;;;5035483;28;20076;-62
2022/11/26 06:56:01;;;;;;;14.88;6.75;;;5.60;84.70;;;;;;5034338;28;20295;-63
2022/11/26 06:58:27;;;;;;;12.45;6.63;;;5.60;84.90;;;;;;5035498;28;20038;-63
2022/11/26 07:00:53;;;;;;;8.60;5.93;;;5.50;85.20;;;;;;5036436;28;20083;-62
2022/11/26 07:03:18;;;;;;;8.93;5.70;;;5.50;85.40;;;;;;5035869;28;20517;-63
2022/11/26 07:05:44;;;;;;;11.20;5.90;;;5.50;85.40;;;;;;5033750;28;20050;-62
2022/11/26 07:08:09;;;;;;;10.15;6.15;;;5.50;85.60;;;;;;5035536;28;20565;-62
2022/11/26 07:10:35;;;;;;;12.23;6.18;;;5.50;85.60;;;;;;5034075;28;20044;-63
2022/11/26 07:13:01;;;;;;;9.52;5.82;;;5.50;85.60;;;;;;5035071;28;20037;-62
2022/11/26 07:15:26;;;;;;;9.85;5.70;;;5.50;85.60;;;;;;5037144;28;20049;-63
2022/11/26 07:17:52;;;;;;;7.88;5.38;;;5.50;85.40;;;;;;5018755;28;21421;-63
2022/11/26 07:20:17;;;;;;;6.82;4.97;;;5.40;85.20;;;;;;5037063;28;20096;-63
2022/11/26 07:22:43;;;;;;;9.18;5.47;;;5.40;85.30;;;;;;5037251;28;20452;-63
2022/11/26 07:25:09;;;;;;;8.32;4.95;;;5.40;85.30;;;;;;5037109;28;20095;-63
2022/11/26 07:27:34;;;;;;;9.07;4.88;;;5.40;85.20;;;;;;5036888;28;20099;-63
2022/11/26 07:30:00;;;;;;;7.97;5.10;;;5.40;85.30;;;;;;5037444;28;20066;-63
2022/11/26 07:32:28;;;;;;;9.40;5.22;;;5.30;85.50;;;;;;5036247;28;20048;-63
2022/11/26 07:34:53;;;;;;;7.15;5.05;;;5.30;85.60;;;;;;5036839;28;20257;-63
2022/11/26 07:37:19;;;;;;;10.82;6.22;;;5.20;86.00;;;;;;5036550;28;20504;-62
2022/11/26 07:39:45;;;;;;;7.57;5.50;;;5.30;86.30;;;;;;5025849;28;20045;-61
2022/11/26 07:42:12;;;;;;;8.75;5.90;;;5.30;86.40;;;;;;5031904;28;20117;-63
2022/11/26 07:44:38;;;;;;;8.45;5.82;;;5.30;86.50;;;;;;5030421;28;20045;-61
2022/11/26 07:47:03;;;;;;;9.20;5.93;;;5.30;86.60;;;;;;5031216;28;20049;-63
2022/11/26 07:49:29;;;;;;;9.02;5.75;;;5.30;86.80;;;;;;5031768;28;20029;-61
2022/11/26 07:51:55;;;;;;;7.15;5.35;;;5.30;87.20;;;;;;5032240;28;20131;-63
2022/11/26 07:54:20;;;;;;;7.00;5.10;;;5.30;87.50;;;;;;5034550;28;20037;-63
2022/11/26 07:56:46;;;;;;;14.57;6.18;;;5.30;88.00;;;;;;5034722;28;20461;-62
2022/11/26 07:59:11;;;;;;;8.18;5.72;;;5.30;88.40;;;;;;5034319;28;20138;-62
2022/11/26 08:01:37;;;;;;;14.82;6.47;;;5.40;88.80;;;;;;5032682;28;20049;-63
2022/11/26 08:04:04;;;;;;;12.32;5.88;;;5.40;89.20;;;;;;5036844;28;20124;-61
2022/11/26 08:06:30;;;;;;;8.15;4.88;;;5.50;89.60;;;;;;5036311;28;20029;-63
2022/11/26 08:08:59;;;;;;;9.00;4.85;;;5.50;89.60;;;;;;5042166;28;20036;-63
2022/11/26 08:11:27;;;;;;;10.85;4.75;;;5.60;90.00;;;;;;5041968;28;20025;-62
2022/11/26 08:13:58;;;;;;;9.68;5.00;;;5.60;90.10;;;;;;5035507;28;20029;-63
2022/11/26 08:16:24;;;;;;;12.27;5.80;;;5.70;90.20;;;;;;5036207;28;20049;-62
2022/11/26 08:18:54;;;;;;;8.82;4.32;;;5.70;90.30;;;;;;5037524;28;20041;-63
2022/11/26 08:21:20;;;;;;;8.80;4.30;;;5.80;90.40;;;;;;5038863;28;20534;-63
2022/11/26 08:23:46;;;;;;;9.15;4.07;;;5.80;90.30;;;;;;5034625;28;20045;-63
2022/11/26 08:26:13;;;;;;;6.03;4.03;;;5.90;90.30;;;;;;5037245;28;20040;-64
2022/11/26 08:28:44;;;;;;;9.57;4.22;;;5.90;90.30;;;;;;5037291;28;20536;-63
2022/11/26 08:33:45;;;;;;;13.30;4.90;;;6.00;90.40;;;;;;5386303;23;24756;-62
2022/11/26 08:36:12;;;;;;;9.20;4.32;;;6.10;90.50;;;;;;5029278;28;20522;-61
2022/11/26 08:38:38;;;;;;;9.77;4.30;;;6.20;90.50;;;;;;5035696;28;20034;-63
2022/11/26 08:41:06;;;;;;;6.53;3.80;;;6.20;90.50;;;;;;5018807;28;20664;-61
2022/11/26 08:43:34;;;;;;;8.73;4.35;;;6.30;90.50;;;;;;5020926;28;20041;-63
2022/11/26 08:45:59;;;;;;;8.27;4.20;;;6.40;90.40;;;;;;5013349;28;20124;-62
2022/11/26 08:48:27;;;;;;;7.43;3.90;;;6.40;90.20;;;;;;5012304;28;20388;-62
2022/11/26 08:51:01;;;;;;;6.20;3.92;;;6.50;90.10;;;;;;5014104;28;20511;-62
2022/11/26 08:53:28;;;;;;;9.80;4.03;;;6.60;90.10;;;;;;5011310;28;20069;-64
2022/11/26 08:56:05;;;;;;;6.97;3.88;;;6.60;90.00;;;;;;5003347;28;20049;-63
2022/11/26 08:58:36;;;;;;;7.05;4.40;;;6.70;90.00;;;;;;5005010;28;20040;-63
2022/11/26 09:01:10;;;;;;;7.70;4.60;;;6.80;90.00;;;;;;5010173;28;20037;-63
2022/11/26 09:03:37;;;;;;;8.77;4.40;;;6.80;90.00;;;;;;5008197;28;20029;-63
2022/11/26 09:06:04;;;;;;;8.77;4.65;;;6.90;89.90;;;;;;5009844;28;20515;-63
2022/11/26 09:08:30;;;;;;;7.78;4.85;;;6.90;90.00;;;;;;5008540;28;20049;-62
2022/11/26 09:10:57;;;;;;;8.63;5.07;;;6.90;90.00;;;;;;5008411;28;20117;-63
2022/11/26 09:13:22;;;;;;;9.75;6.30;;;7.10;90.10;;;;;;5012535;28;20102;-63
2022/11/26 09:15:49;;;;;;;8.00;5.88;;;7.10;90.10;;;;;;5014603;28;20504;-63
2022/11/26 09:18:16;;;;;;;8.40;6.55;;;7.20;90.10;;;;;;5014482;28;20532;-62
2022/11/26 09:20:41;;;;;;;10.18;6.25;;;7.30;90.00;;;;;;5007135;28;20022;-62
2022/11/26 09:23:07;;;;;;;9.05;6.60;;;7.40;89.90;;;;;;5009424;28;20041;-63
2022/11/26 09:25:32;;;;;;;9.85;6.28;;;7.40;89.70;;;;;;5012561;28;20655;-63
2022/11/26 09:27:58;;;;;;;9.95;6.03;;;7.50;89.50;;;;;;5013014;28;20388;-62
2022/11/26 09:30:23;;;;;;;9.65;6.38;;;7.50;89.30;;;;;;5013123;28;20037;-63
2022/11/26 09:32:49;;;;;;;10.68;6.90;;;7.50;89.20;;;;;;4994476;28;20045;-63
2022/11/26 09:35:15;;;;;;;8.95;6.68;;;7.50;89.10;;;;;;5011264;28;20052;-63
2022/11/26 09:37:40;;;;;;;11.02;7.25;;;7.60;89.20;;;;;;5010979;28;20058;-63
2022/11/26 09:40:09;;;;;;;10.52;6.85;;;7.60;90.00;;;;;;5015154;28;20045;-63
2022/11/26 09:43:00;;;;;;;11.85;7.40;;;7.60;89.20;;;;;;5013676;28;20037;-63
2022/11/26 09:45:42;;;;;;;10.30;7.03;;;7.60;89.30;;;;;;5004398;28;20342;-63
2022/11/26 09:48:16;;;;;;;11.50;7.10;;;7.70;89.40;;;;;;5004599;28;20033;-61
2022/11/26 09:50:44;;;;;;;9.70;6.75;;;7.80;89.50;;;;;;5010242;28;20061;-63
2022/11/26 09:53:24;;;;;;;10.38;7.40;;;7.80;89.30;;;;;;4997867;28;20038;-63
2022/11/26 09:55:52;;;;;;;10.27;6.88;;;7.80;89.30;;;;;;5011137;28;20044;-62
2022/11/26 09:58:23;;;;;;;9.48;5.95;;;7.80;89.20;;;;;;5008946;28;20046;-63
2022/11/26 10:00:52;;;;;;;7.25;4.72;;;7.90;89.20;;;;;;5009071;28;20029;-63
2022/11/26 10:03:23;;;;;;;7.78;5.68;;;7.90;89.20;;;;;;5014461;28;20037;-62
2022/11/26 10:05:54;;;;;;;6.10;4.78;;;8.00;89.20;;;;;;5009412;28;20038;-63
2022/11/26 10:08:30;;;;;;;10.85;6.43;;;8.00;89.10;;;;;;5007725;28;20029;-62
2022/11/26 10:10:58;;;;;;;8.02;5.40;;;8.10;89.20;;;;;;5008276;28;20076;-64
2022/11/26 10:13:29;;;;;;;5.72;3.65;;;8.10;89.10;;;;;;5013548;28;20046;-63
2022/11/26 10:16:25;;;;;;;8.23;4.10;;;8.10;89.10;;;;;;4995602;28;20621;-63
2022/11/26 10:18:54;;;;;;;;;;;8.20;89.10;;;;;;5012498;28;20108;-61
2022/11/26 10:21:33;;;;;;;5.00;3.40;;;8.30;89.30;;;;;;5013144;28;20006;-63
2022/11/26 10:24:13;;;;;;;6.65;3.78;;;8.30;88.80;;;;;;5007734;28;21087;-62
2022/11/26 10:26:39;;;;;;;5.95;3.55;;;8.30;88.70;;;;;;5008194;28;20092;-61
2022/11/26 10:29:24;;;;;;;5.18;4.10;;;8.40;88.70;;;;;;5002605;28;20432;-62
2022/11/26 10:31:55;;;;;;;5.20;3.28;;;8.40;88.60;;;;;;5009826;28;20334;-62
2022/11/26 10:34:38;;;;;;;7.63;3.60;;;8.50;89.30;;;;;;5012810;28;20493;-63
2022/11/26 10:37:04;;;;;;;4.20;3.08;;;8.50;88.30;;;;;;5015380;28;20485;-63
2022/11/26 10:39:29;;;;;;;7.18;3.47;;;8.50;88.10;;;;;;5007365;28;20040;-62
2022/11/26 10:41:55;;;;;;;6.10;4.13;;;8.60;88.10;;;;;;5012509;28;20037;-62
2022/11/26 10:44:38;;;;;;;5.68;3.17;;;8.60;88.00;;;;;;5012084;28;20045;-63
2022/11/26 10:47:29;;;;;;;5.95;3.25;;;8.60;88.00;;;;;;5013342;28;20034;-62
2022/11/26 10:50:04;;;;;;;8.60;3.42;;;8.60;87.80;;;;;;5013207;28;20037;-63
2022/11/26 10:52:32;;;;;;;5.45;3.00;;;8.60;87.80;;;;;;5011156;28;20029;-62
2022/11/26 10:55:15;;;;;;;6.25;3.08;;;8.70;87.90;;;;;;5012628;28;20049;-61
2022/11/26 10:57:46;;;;;;;6.78;2.78;;;8.70;87.50;;;;;;4995008;28;20047;-63
2022/11/26 11:00:38;;;;;;;6.10;3.00;;;8.70;87.60;;;;;;5006543;28;20091;-62
2022/11/26 11:03:26;;;;;;;6.95;3.03;;;8.80;87.50;;;;;;5010258;28;20096;-63
2022/11/26 11:06:22;;;;;;;6.97;2.88;;;8.80;87.30;;;;;;5012939;28;20125;-63
2022/11/26 11:08:50;;;;;;;8.00;2.70;;;8.80;87.30;;;;;;4996691;28;20034;-62
2022/11/26 11:11:25;;;;;;;7.78;2.60;;;8.90;87.30;;;;;;5013964;28;20120;-63
2022/11/26 11:13:52;;;;;;;5.13;2.40;;;8.90;87.10;;;;;;5012983;28;20045;-62
2022/11/26 11:16:42;;;;;;;10.15;4.07;;;8.90;87.10;;;;;;5014954;28;20029;-62
2022/11/26 11:19:24;;;;;;;8.93;4.35;;;9.00;87.30;;;;;;5013654;28;20285;-63
2022/11/26 11:21:50;;;;;;;5.80;2.80;;;9.00;87.30;;;;;;5014398;28;20060;-62
2022/11/26 11:24:21;;;;;;;5.13;2.22;;;9.10;87.30;;;;;;4997400;28;20432;-63
2022/11/26 11:26:49;;;;;;;5.75;2.00;;;9.10;87.30;;;;;;5011924;28;20036;-63
2022/11/26 11:29:36;;;;;;;6.75;2.40;;;9.10;87.20;;;;;;5012552;28;20062;-63
2022/11/26 11:32:05;;;;;;;7.45;2.40;;;9.20;87.20;;;;;;5013472;28;20030;-62
2022/11/26 11:34:37;;;;;;;6.60;2.30;;;9.30;87.50;;;;;;5005177;28;20459;-63
2022/11/26 11:37:14;;;;;;;5.15;1.52;;;9.30;87.30;;;;;;5012959;28;20038;-63
2022/11/26 11:39:39;;;;;;;5.90;1.70;;;9.40;86.70;;;;;;5013388;28;20409;-63
2022/11/26 11:42:27;;;;;;;5.55;1.70;;;9.50;86.90;;;;;;5016670;28;20044;-62
2022/11/26 11:44:53;;;;;;;4.00;1.38;;;9.60;85.30;;;;;;5015814;28;20045;-63
2022/11/26 11:47:24;;;;;;;8.27;1.70;;;9.60;85.80;;;;;;5016697;28;20033;-63
2022/11/26 11:50:08;;;;;;;6.28;1.90;;;9.70;85.30;;;;;;5016029;28;20037;-62
2022/11/26 11:52:42;;;;;;;4.78;1.85;;;9.70;85.40;;;;;;5015574;28;20072;-62
2022/11/26 11:55:32;;;;;;;7.03;2.00;;;9.80;85.10;;;;;;5017349;28;20033;-63
2022/11/26 11:58:37;;;;;;;5.47;1.70;;;9.90;84.60;;;;;;5015382;28;20041;-63
2022/11/26 12:01:10;;;;;;;4.40;1.60;;;9.90;83.30;;;;;;5017140;28;20030;-63
2022/11/26 12:03:36;;;;;;;5.60;1.83;;;9.90;83.60;;;;;;5016406;28;20026;-62
2022/11/26 12:06:18;;;;;;;3.85;1.60;;;10.00;84.00;;;;;;5016220;28;20042;-63
2022/11/26 12:08:50;;;;;;;9.10;1.67;;;10.00;84.30;;;;;;5016777;28;20034;-60
2022/11/26 12:11:22;;;;;;;5.25;1.45;;;10.10;82.70;;;;;;5018944;28;20030;-63
2022/11/26 12:13:56;;;;;;;3.65;1.45;;;10.10;82.60;;;;;;5015590;28;20037;-62
2022/11/26 12:16:26;;;;;;;4.30;1.30;;;10.10;82.30;;;;;;5013792;28;20099;-62
2022/11/26 12:19:06;;;;;;;4.53;1.77;;;10.10;82.40;;;;;;5014305;28;20090;-62
2022/11/26 12:21:44;;;;;;;6.47;1.70;;;10.20;82.00;;;;;;5014642;28;20041;-61
2022/11/26 12:24:22;;;;;;;4.95;1.98;;;10.20;81.90;;;;;;5016205;28;20030;-63
2022/11/26 12:26:55;;;;;;;6.53;2.03;;;10.20;82.00;;;;;;5013215;28;20033;-64
2022/11/26 12:29:32;;;;;;;7.20;1.65;;;10.20;81.70;;;;;;5015682;28;20230;-61
2022/11/26 12:32:19;;;;;;;7.20;1.60;;;10.30;81.90;;;;;;5014850;28;20052;-63
2022/11/26 12:34:51;;;;;;;7.25;1.83;;;10.20;81.30;;;;;;5014684;28;20088;-62
2022/11/26 12:37:26;;;;;;;3.47;1.48;;;10.30;81.00;;;;;;5015015;28;20053;-62
2022/11/26 12:40:07;;;;;;;6.00;2.13;;;10.30;81.00;;;;;;5014872;28;20036;-63
2022/11/26 12:42:44;;;;;;;7.30;2.25;;;10.30;80.20;;;;;;5012407;28;20508;-60
2022/11/26 12:45:36;;;;;;;4.82;1.90;;;10.30;80.90;;;;;;5012474;28;20149;-63
2022/11/26 12:48:17;;;;;;;4.35;1.90;;;10.30;80.40;;;;;;5015778;28;20063;-63
2022/11/26 12:50:50;;;;;;;9.50;4.20;;;10.20;80.80;;;;;;5012447;28;20033;-62
2022/11/26 12:53:46;;;;;;;5.50;2.60;;;10.20;80.80;;;;;;5009441;28;20042;-61
2022/11/26 12:56:23;;;;;;;8.50;2.50;;;10.20;80.60;;;;;;5013577;28;20053;-60
2022/11/26 12:59:02;;;;;;;13.18;2.22;;;10.20;81.00;;;;;;5010702;28;20063;-63
2022/11/26 13:01:28;;;;;;;6.38;2.63;;;10.20;80.80;;;;;;5014460;28;20432;-62
2022/11/26 13:03:55;;;;;;;7.18;2.38;;;10.10;81.20;;;;;;5011818;28;20036;-61
2022/11/26 13:06:35;;;;;;;5.32;2.20;;;10.20;81.30;;;;;;5012957;28;20030;-62
2022/11/26 13:09:14;;;;;;;6.78;1.92;;;10.10;80.90;;;;;;5012021;28;20038;-63
2022/11/26 13:12:07;;;;;;;7.07;2.95;;;10.10;80.60;;;;;;5012995;28;20495;-63